createdAt,value
2023-02-21T00:00:46.707Z,27.25
2023-02-21T00:02:07.806Z,26.75
2023-02-21T00:03:29.021Z,27.75
2023-02-21T00:04:50.242Z,29.75
2023-02-21T00:06:11.465Z,29.25
2023-02-21T00:07:32.731Z,31.50
2023-02-21T00:08:53.756Z,29.00
2023-02-21T00:10:14.925Z,30.00
2023-02-21T00:11:36.265Z,30.50
2023-02-21T00:12:57.276Z,31.25
2023-02-21T00:14:18.144Z,33.00
2023-02-21T00:15:39.479Z,29.75
2023-02-21T00:17:00.413Z,33.50
2023-02-21T00:18:21.500Z,32.50
2023-02-21T00:19:42.622Z,30.00
2023-02-21T00:21:03.633Z,30.00
2023-02-21T00:22:24.713Z,28.00
2023-02-21T00:23:45.812Z,29.50
2023-02-21T00:25:07.138Z,27.75
2023-02-21T00:26:28.250Z,28.75
2023-02-21T00:27:49.367Z,29.75
2023-02-21T00:29:14.771Z,33.50
2023-02-21T00:30:36.305Z,34.00
2023-02-21T00:31:57.401Z,33.50
2023-02-21T00:33:18.621Z,36.75
2023-02-21T00:34:39.719Z,37.00
2023-02-21T00:36:00.894Z,37.50
2023-02-21T00:37:22.159Z,36.75
2023-02-21T00:38:43.419Z,36.50
2023-02-21T00:40:04.432Z,35.00
2023-02-21T00:41:25.515Z,35.00
2023-02-21T00:42:46.862Z,35.00
2023-02-21T00:44:07.958Z,33.75
2023-02-21T00:45:30.042Z,30.00
2023-02-21T00:46:51.397Z,31.00
2023-02-21T00:48:12.411Z,31.00
2023-02-21T00:49:33.544Z,29.25
2023-02-21T00:50:54.664Z,30.25
2023-02-21T00:52:15.822Z,34.75
2023-02-21T00:53:36.893Z,33.75
2023-02-21T00:54:57.941Z,34.50
2023-02-21T00:56:19.081Z,35.00
2023-02-21T00:57:40.479Z,33.00
2023-02-21T00:59:01.820Z,32.00
2023-02-21T01:00:24.503Z,35.75
2023-02-21T01:01:45.644Z,33.25
2023-02-21T01:03:06.800Z,32.25
2023-02-21T01:04:28.310Z,31.75
2023-02-21T01:05:49.684Z,34.00
2023-02-21T01:07:11.243Z,34.00
2023-02-21T01:08:32.875Z,29.00
2023-02-21T01:09:53.701Z,29.00
2023-02-21T01:11:15.148Z,28.00
2023-02-21T01:12:36.669Z,28.75
2023-02-21T01:13:57.700Z,26.00
2023-02-21T01:15:18.614Z,22.50
2023-02-21T01:16:39.690Z,21.00
2023-02-21T01:18:00.735Z,23.00
2023-02-21T01:19:21.825Z,22.00
2023-02-21T01:20:42.760Z,23.50
2023-02-21T01:22:03.761Z,22.00
2023-02-21T01:23:24.926Z,25.00
2023-02-21T01:24:45.951Z,25.00
2023-02-21T01:26:07.044Z,22.00
2023-02-21T01:27:28.149Z,25.00
2023-02-21T01:28:49.296Z,23.75
2023-02-21T01:30:10.440Z,25.00
2023-02-21T01:31:36.054Z,28.50
2023-02-21T01:32:57.166Z,26.00
2023-02-21T01:34:18.173Z,26.00
2023-02-21T01:35:39.294Z,24.75
2023-02-21T01:37:01.120Z,24.50
2023-02-21T01:38:22.327Z,26.50
2023-02-21T01:39:43.705Z,28.00
2023-02-21T01:41:04.960Z,30.00
2023-02-21T01:42:26.418Z,30.75
2023-02-21T01:43:48.658Z,27.75
2023-02-21T01:45:51.173Z,25.75
2023-02-21T01:47:12.590Z,26.00
2023-02-21T01:48:40.790Z,25.75
2023-02-21T01:50:01.964Z,24.50
2023-02-21T01:51:25.097Z,30.00
2023-02-21T01:52:46.396Z,32.00
2023-02-21T01:54:07.893Z,32.00
2023-02-21T01:55:31.306Z,33.75
2023-02-21T01:56:52.814Z,33.75
2023-02-21T01:58:15.606Z,29.75
2023-02-21T01:59:38.794Z,28.75
2023-02-21T02:01:00.636Z,29.00
2023-02-21T02:02:24.650Z,29.75
2023-02-21T02:03:46.807Z,31.00
2023-02-21T02:05:09.008Z,28.00
2023-02-21T02:06:33.594Z,22.00
2023-02-21T02:07:55.999Z,20.00
2023-02-21T02:09:17.156Z,20.25
2023-02-21T02:10:38.842Z,20.00
2023-02-21T02:12:05.877Z,19.25
2023-02-21T02:13:36.660Z,17.75
2023-02-21T02:14:47.076Z,17.00
2023-02-21T02:16:08.225Z,15.00
2023-02-21T02:17:44.310Z,14.50
2023-02-21T02:19:03.923Z,16.75
2023-02-21T02:20:06.551Z,17.50
2023-02-21T02:21:18.343Z,16.00
2023-02-21T02:22:39.946Z,17.50
2023-02-21T02:24:04.170Z,18.75
2023-02-21T02:25:33.533Z,19.75
2023-02-21T02:26:41.993Z,17.00
2023-02-21T02:28:02.947Z,15.00
2023-02-21T02:29:33.826Z,14.00
2023-02-21T02:30:59.613Z,15.00
2023-02-21T02:32:20.560Z,14.00
2023-02-21T02:33:49.906Z,14.50
2023-02-21T02:34:55.149Z,15.00
2023-02-21T02:36:19.382Z,14.25
2023-02-21T02:37:46.374Z,17.00
2023-02-21T02:39:13.385Z,16.00
2023-02-21T02:40:44.848Z,15.00
2023-02-21T02:41:57.944Z,15.00
2023-02-21T02:43:28.110Z,15.00
2023-02-21T02:44:41.520Z,16.00
2023-02-21T02:45:47.511Z,15.25
2023-02-21T02:46:51.874Z,14.00
2023-02-21T02:48:00.981Z,12.00
2023-02-21T02:49:11.256Z,14.00
2023-02-21T02:50:15.004Z,14.00
2023-02-21T02:51:18.339Z,10.00
2023-02-21T02:52:20.999Z,7.00
2023-02-21T02:53:27.661Z,6.25
2023-02-21T02:54:30.333Z,6.00
2023-02-21T02:55:38.995Z,3.50
2023-02-21T02:56:41.718Z,3.00
2023-02-21T02:57:49.808Z,3.75
2023-02-21T02:59:01.182Z,4.00
2023-02-21T03:00:04.612Z,5.00
2023-02-21T03:01:24.745Z,3.75
2023-02-21T03:03:00.399Z,3.00
2023-02-21T03:04:21.703Z,3.00
2023-02-21T03:05:46.101Z,3.00
2023-02-21T03:07:12.801Z,3.00
2023-02-21T03:08:18.152Z,3.00
2023-02-21T03:09:34.906Z,3.25
2023-02-21T03:10:43.695Z,2.00
2023-02-21T03:11:57.612Z,4.00
2023-02-21T03:13:12.191Z,3.75
2023-02-21T03:14:18.206Z,3.00
2023-02-21T03:15:23.096Z,2.00
2023-02-21T03:16:27.762Z,3.00
2023-02-21T03:17:35.029Z,4.00
2023-02-21T03:18:42.511Z,2.00
2023-02-21T03:19:48.498Z,2.25
2023-02-21T03:20:56.981Z,3.00
2023-02-21T03:22:01.963Z,2.00
2023-02-21T03:23:06.701Z,3.50
2023-02-21T03:24:11.690Z,3.00
2023-02-21T03:25:16.235Z,1.25
2023-02-21T03:26:19.759Z,3.00
2023-02-21T03:27:24.227Z,2.50
2023-02-21T03:28:27.513Z,4.00
2023-02-21T03:29:30.738Z,3.00
2023-02-21T03:30:33.897Z,3.00
2023-02-21T03:31:42.555Z,1.00
2023-02-21T03:32:50.221Z,2.00
2023-02-21T03:33:53.045Z,2.00
2023-02-21T03:34:55.741Z,2.00
2023-02-21T03:36:01.114Z,1.00
2023-02-21T03:37:05.447Z,2.00
2023-02-21T03:38:08.165Z,2.75
2023-02-21T03:39:10.825Z,3.25
2023-02-21T03:40:27.169Z,1.00
2023-02-21T03:41:29.829Z,1.00
2023-02-21T03:42:32.508Z,2.00
2023-02-21T03:43:35.171Z,1.00
2023-02-21T03:44:37.786Z,2.00
2023-02-21T03:45:40.467Z,1.00
2023-02-21T03:46:43.169Z,1.75
2023-02-21T03:47:45.897Z,1.00
2023-02-21T03:48:48.681Z,2.00
2023-02-21T03:49:51.324Z,0.25
2023-02-21T03:50:53.979Z,2.25
2023-02-21T03:51:56.682Z,4.00
2023-02-21T03:52:59.515Z,5.25
2023-02-21T03:54:02.184Z,4.50
2023-02-21T03:55:04.932Z,4.00
2023-02-21T03:56:07.840Z,4.50
2023-02-21T03:57:10.551Z,4.00
2023-02-21T03:58:13.310Z,3.00
2023-02-21T03:59:15.975Z,3.00
2023-02-21T04:00:19.060Z,1.50
2023-02-21T04:01:21.758Z,3.00
2023-02-21T04:02:24.679Z,3.00
2023-02-21T04:03:27.434Z,2.00
2023-02-21T04:04:30.077Z,1.00
2023-02-21T04:05:32.752Z,1.75
2023-02-21T04:06:35.424Z,1.00
2023-02-21T04:07:38.078Z,1.00
2023-02-21T04:08:40.707Z,1.00
2023-02-21T04:09:43.948Z,1.75
2023-02-21T04:10:52.003Z,2.00
2023-02-21T04:11:55.530Z,1.00
2023-02-21T04:12:58.167Z,0.00
2023-02-21T04:14:00.815Z,0.25
2023-02-21T04:15:03.446Z,0.00
2023-02-21T04:16:06.363Z,0.00
2023-02-21T04:17:09.147Z,0.00
2023-02-21T04:18:11.787Z,1.00
2023-02-21T04:19:14.428Z,1.00
2023-02-21T04:20:17.186Z,1.00
2023-02-21T04:21:20.202Z,2.00
2023-02-21T04:22:23.548Z,1.00
2023-02-21T04:23:26.196Z,0.00
2023-02-21T04:24:29.572Z,1.00
2023-02-21T04:25:32.581Z,1.00
2023-02-21T04:26:36.051Z,0.75
2023-02-21T04:27:38.686Z,1.00
2023-02-21T04:28:41.364Z,1.00
2023-02-21T04:29:44.077Z,0.00
2023-02-21T04:30:46.833Z,0.00
2023-02-21T04:31:49.648Z,0.25
2023-02-21T04:32:52.411Z,3.50
2023-02-21T04:34:09.535Z,4.00
2023-02-21T04:35:13.801Z,3.00
2023-02-21T04:36:17.024Z,1.00
2023-02-21T04:37:19.997Z,2.00
2023-02-21T04:38:22.650Z,3.25
2023-02-21T04:39:25.294Z,4.00
2023-02-21T04:40:27.943Z,3.75
2023-02-21T04:41:30.649Z,4.00
2023-02-21T04:42:33.297Z,5.00
2023-02-21T04:43:35.935Z,4.00
2023-02-21T04:44:40.279Z,4.00
2023-02-21T04:45:44.258Z,4.00
2023-02-21T04:46:47.002Z,2.00
2023-02-21T04:47:49.683Z,2.00
2023-02-21T04:48:53.822Z,2.00
2023-02-21T04:49:56.480Z,2.00
2023-02-21T04:51:06.936Z,2.00
2023-02-21T04:52:17.256Z,2.50
2023-02-21T04:53:19.950Z,2.00
2023-02-21T04:54:22.671Z,2.25
2023-02-21T04:55:25.315Z,1.00
2023-02-21T04:56:29.364Z,1.00
2023-02-21T04:57:32.108Z,1.00
2023-02-21T04:58:44.894Z,0.00
2023-02-21T04:59:48.446Z,0.50
2023-02-21T05:00:51.100Z,0.00
2023-02-21T05:01:53.808Z,0.75
2023-02-21T05:02:56.561Z,2.00
2023-02-21T05:04:00.759Z,1.00
2023-02-21T05:05:03.504Z,0.00
2023-02-21T05:06:06.502Z,0.00
2023-02-21T05:07:09.198Z,0.00
2023-02-21T05:08:11.832Z,0.00
2023-02-21T05:09:14.510Z,0.00
2023-02-21T05:10:18.462Z,0.00
2023-02-21T05:11:22.002Z,0.00
2023-02-21T05:12:24.749Z,0.00
2023-02-21T05:13:27.923Z,0.00
2023-02-21T05:14:30.555Z,0.00
2023-02-21T05:15:33.237Z,0.00
2023-02-21T05:16:35.923Z,0.00
2023-02-21T05:17:38.663Z,0.00
2023-02-21T05:18:45.722Z,0.00
2023-02-21T05:19:49.004Z,0.00
2023-02-21T05:20:51.631Z,0.00
2023-02-21T05:21:59.422Z,0.00
2023-02-21T05:23:08.226Z,0.00
2023-02-21T05:24:15.895Z,0.50
2023-02-21T05:25:24.201Z,1.00
2023-02-21T05:26:30.913Z,0.00
2023-02-21T05:27:33.515Z,0.00
2023-02-21T05:28:37.128Z,1.00
2023-02-21T05:29:39.785Z,1.00
2023-02-21T05:30:42.549Z,0.50
2023-02-21T05:31:46.439Z,0.25
2023-02-21T05:32:49.337Z,1.00
2023-02-21T05:33:52.117Z,0.00
2023-02-21T05:34:54.793Z,0.25
2023-02-21T05:35:57.877Z,2.00
2023-02-21T05:37:00.528Z,1.00
2023-02-21T05:38:03.145Z,1.00
2023-02-21T05:39:06.259Z,1.00
2023-02-21T05:40:11.106Z,1.00
2023-02-21T05:41:14.241Z,1.25
2023-02-21T05:42:17.141Z,0.00
2023-02-21T05:43:19.853Z,0.00
2023-02-21T05:44:22.504Z,0.00
2023-02-21T05:45:25.132Z,0.00
2023-02-21T05:46:30.713Z,0.25
2023-02-21T05:47:35.829Z,1.00
2023-02-21T05:48:38.468Z,2.00
2023-02-21T05:49:42.211Z,2.50
2023-02-21T05:50:46.088Z,2.00
2023-02-21T05:51:48.827Z,3.25
2023-02-21T05:52:51.465Z,4.00
2023-02-21T05:53:54.284Z,4.25
2023-02-21T05:54:57.000Z,3.75
2023-02-21T05:55:59.701Z,4.00
2023-02-21T05:57:02.641Z,4.00
2023-02-21T05:58:05.408Z,2.25
2023-02-21T05:59:09.143Z,2.00
2023-02-21T06:00:27.571Z,2.25
2023-02-21T06:01:30.248Z,2.00
2023-02-21T06:02:32.925Z,2.00
2023-02-21T06:03:35.804Z,4.00
2023-02-21T06:04:38.497Z,2.00
2023-02-21T06:05:41.220Z,4.00
2023-02-21T06:06:44.476Z,4.00
2023-02-21T06:07:47.649Z,3.25
2023-02-21T06:08:51.142Z,4.00
2023-02-21T06:09:53.784Z,8.00
2023-02-21T06:10:56.526Z,7.25
2023-02-21T06:11:59.537Z,6.00
2023-02-21T06:13:02.379Z,5.50
2023-02-21T06:14:07.625Z,9.00
2023-02-21T06:15:10.813Z,6.00
2023-02-21T06:16:13.567Z,6.25
2023-02-21T06:17:16.247Z,6.00
2023-02-21T06:18:19.011Z,9.00
2023-02-21T06:19:21.712Z,7.00
2023-02-21T06:20:24.588Z,6.00
2023-02-21T06:21:27.407Z,7.00
2023-02-21T06:22:30.304Z,6.00
2023-02-21T06:23:33.701Z,8.00
2023-02-21T06:24:36.466Z,8.50
2023-02-21T06:25:39.147Z,8.00
2023-02-21T06:26:46.071Z,9.00
2023-02-21T06:27:48.745Z,9.00
2023-02-21T06:28:51.848Z,9.00
2023-02-21T06:29:54.491Z,9.00
2023-02-21T06:30:57.796Z,10.50
2023-02-21T06:32:01.532Z,12.00
2023-02-21T06:33:04.926Z,14.75
2023-02-21T06:34:07.856Z,17.00
2023-02-21T06:35:10.819Z,15.50
2023-02-21T06:36:22.698Z,17.50
2023-02-21T06:37:25.579Z,15.25
2023-02-21T06:38:28.237Z,16.00
2023-02-21T06:39:31.103Z,15.00
2023-02-21T06:40:33.809Z,14.50
2023-02-21T06:41:36.538Z,14.50
2023-02-21T06:42:39.218Z,15.00
2023-02-21T06:43:41.868Z,17.25
2023-02-21T06:44:49.137Z,16.00
2023-02-21T06:45:51.967Z,14.00
2023-02-21T06:46:57.504Z,13.00
2023-02-21T06:48:00.203Z,10.00
2023-02-21T06:49:03.006Z,9.00
2023-02-21T06:50:06.543Z,11.50
2023-02-21T06:51:12.507Z,15.00
2023-02-21T06:52:15.419Z,15.00
2023-02-21T06:53:18.070Z,15.00
2023-02-21T06:54:21.237Z,11.25
2023-02-21T06:55:25.641Z,7.00
2023-02-21T06:56:29.158Z,6.50
2023-02-21T06:57:31.789Z,10.00
2023-02-21T06:58:34.449Z,10.00
2023-02-21T06:59:37.098Z,9.00
2023-02-21T07:00:39.846Z,5.00
2023-02-21T07:01:42.536Z,5.00
2023-02-21T07:02:45.761Z,4.00
2023-02-21T07:03:48.795Z,4.75
2023-02-21T07:04:51.580Z,4.00
2023-02-21T07:05:54.685Z,4.00
2023-02-21T07:06:57.334Z,2.00
2023-02-21T07:08:00.048Z,3.00
2023-02-21T07:09:02.931Z,5.00
2023-02-21T07:10:06.200Z,4.00
2023-02-21T07:11:09.139Z,5.00
2023-02-21T07:12:11.792Z,2.75
2023-02-21T07:13:14.652Z,1.00
2023-02-21T07:14:17.439Z,3.00
2023-02-21T07:15:20.234Z,3.00
2023-02-21T07:16:22.840Z,3.00
2023-02-21T07:17:25.472Z,2.00
2023-02-21T07:18:28.208Z,2.00
2023-02-21T07:19:30.897Z,2.00
2023-02-21T07:20:34.409Z,2.50
2023-02-21T07:22:39.559Z,3.00
2023-02-21T07:23:44.713Z,2.00
2023-02-21T07:24:47.342Z,3.00
2023-02-21T07:25:50.173Z,2.00
2023-02-21T07:26:52.871Z,2.00
2023-02-21T07:27:55.689Z,1.75
2023-02-21T07:28:58.392Z,2.00
2023-02-21T07:30:01.151Z,1.50
2023-02-21T07:31:04.433Z,2.00
2023-02-21T07:32:07.164Z,2.00
2023-02-21T07:33:09.859Z,1.00
2023-02-21T07:34:13.325Z,2.00
2023-02-21T07:35:16.013Z,1.00
2023-02-21T07:36:18.926Z,2.00
2023-02-21T07:37:21.598Z,2.00
2023-02-21T07:38:26.451Z,2.00
2023-02-21T07:39:29.080Z,2.00
2023-02-21T07:40:31.836Z,2.00
2023-02-21T07:41:34.662Z,3.00
2023-02-21T07:42:37.329Z,3.00
2023-02-21T07:43:40.300Z,1.00
2023-02-21T07:44:43.031Z,2.00
2023-02-21T07:45:45.979Z,2.00
2023-02-21T07:46:48.687Z,2.00
2023-02-21T07:47:52.754Z,1.00
2023-02-21T07:48:55.519Z,3.00
2023-02-21T07:49:58.196Z,1.00
2023-02-21T07:51:00.884Z,2.00
2023-02-21T07:52:03.561Z,1.00
2023-02-21T07:53:06.249Z,3.50
2023-02-21T07:54:08.976Z,4.00
2023-02-21T07:55:13.449Z,3.50
2023-02-21T07:56:16.200Z,2.00
2023-02-21T07:57:20.031Z,3.00
2023-02-21T07:58:22.708Z,3.00
2023-02-21T07:59:25.383Z,3.00
2023-02-21T08:00:28.476Z,3.00
2023-02-21T08:01:31.289Z,4.00
2023-02-21T08:02:34.103Z,4.00
2023-02-21T08:03:38.853Z,1.00
2023-02-21T08:04:42.183Z,3.00
2023-02-21T08:05:47.119Z,3.75
2023-02-21T08:06:50.462Z,3.00
2023-02-21T08:07:55.743Z,1.00
2023-02-21T08:08:58.597Z,2.25
2023-02-21T08:10:01.250Z,3.00
2023-02-21T08:11:04.197Z,2.50
2023-02-21T08:12:07.272Z,2.25
2023-02-21T08:13:10.062Z,2.25
2023-02-21T08:14:12.680Z,2.00
2023-02-21T08:15:15.447Z,2.00
2023-02-21T08:16:18.151Z,1.00
2023-02-21T08:17:20.805Z,3.00
2023-02-21T08:18:25.432Z,2.00
2023-02-21T08:19:28.250Z,1.00
2023-02-21T08:20:30.952Z,3.00
2023-02-21T08:21:33.642Z,2.00
2023-02-21T08:22:38.046Z,2.00
2023-02-21T08:23:40.672Z,2.00
2023-02-21T08:24:43.471Z,3.00
2023-02-21T08:25:47.133Z,2.00
2023-02-21T08:26:49.860Z,2.00
2023-02-21T08:27:56.177Z,1.75
2023-02-21T08:28:58.864Z,1.00
2023-02-21T08:30:01.587Z,1.00
2023-02-21T08:31:04.599Z,1.50
2023-02-21T08:32:07.322Z,1.00
2023-02-21T08:33:10.508Z,1.50
2023-02-21T08:34:14.479Z,3.00
2023-02-21T08:35:18.386Z,1.00
2023-02-21T08:36:21.053Z,0.00
2023-02-21T08:37:23.747Z,3.00
2023-02-21T08:38:26.497Z,1.00
2023-02-21T08:39:33.009Z,1.25
2023-02-21T08:40:35.681Z,0.00
2023-02-21T08:41:39.509Z,1.00
2023-02-21T08:42:42.708Z,1.00
2023-02-21T08:43:45.400Z,5.50
2023-02-21T08:44:48.613Z,9.25
2023-02-21T08:45:52.768Z,8.00
2023-02-21T08:46:55.467Z,10.50
2023-02-21T08:47:59.655Z,8.00
2023-02-21T08:49:03.890Z,3.75
2023-02-21T08:50:07.129Z,3.50
2023-02-21T08:51:09.767Z,4.00
2023-02-21T08:52:12.493Z,1.25
2023-02-21T08:53:16.059Z,1.00
2023-02-21T08:54:18.729Z,3.25
2023-02-21T08:55:22.776Z,2.50
2023-02-21T08:56:27.229Z,2.75
2023-02-21T08:57:29.940Z,1.00
2023-02-21T08:58:32.594Z,1.00
2023-02-21T08:59:36.041Z,1.00
2023-02-21T09:00:38.779Z,1.00
2023-02-21T09:01:41.859Z,0.00
2023-02-21T09:02:44.815Z,1.50
2023-02-21T09:03:47.577Z,1.00
2023-02-21T09:04:50.498Z,1.00
2023-02-21T09:05:53.136Z,1.00
2023-02-21T09:06:57.055Z,0.00
2023-02-21T09:08:02.541Z,2.00
2023-02-21T09:09:05.292Z,2.00
2023-02-21T09:10:10.917Z,2.00
2023-02-21T09:11:14.015Z,2.00
2023-02-21T09:12:17.027Z,2.00
2023-02-21T09:13:19.744Z,3.50
2023-02-21T09:14:22.351Z,2.00
2023-02-21T09:15:25.021Z,2.00
2023-02-21T09:16:27.824Z,1.50
2023-02-21T09:17:34.889Z,2.00
2023-02-21T09:18:37.572Z,2.25
2023-02-21T09:19:40.394Z,1.00
2023-02-21T09:20:43.490Z,1.00
2023-02-21T09:21:49.318Z,3.00
2023-02-21T09:22:52.719Z,2.00
2023-02-21T09:23:57.778Z,2.00
2023-02-21T09:25:01.927Z,2.25
2023-02-21T09:26:04.705Z,4.50
2023-02-21T09:27:07.496Z,3.00
2023-02-21T09:28:10.262Z,2.00
2023-02-21T09:29:13.329Z,2.00
2023-02-21T09:30:22.850Z,3.50
2023-02-21T09:31:25.533Z,1.25
2023-02-21T09:32:29.903Z,1.00
2023-02-21T09:33:32.583Z,5.00
2023-02-21T09:34:35.278Z,6.00
2023-02-21T09:35:38.500Z,3.00
2023-02-21T09:36:41.129Z,5.00
2023-02-21T09:37:45.610Z,6.50
2023-02-21T09:38:48.379Z,6.00
2023-02-21T09:39:51.059Z,6.00
2023-02-21T09:41:00.416Z,5.25
2023-02-21T09:42:03.161Z,5.00
2023-02-21T09:43:12.084Z,5.00
2023-02-21T09:44:28.448Z,6.50
2023-02-21T09:45:37.316Z,6.00
2023-02-21T09:46:52.285Z,3.25
2023-02-21T09:47:57.301Z,4.00
2023-02-21T09:49:00.514Z,4.00
2023-02-21T09:50:08.513Z,4.00
2023-02-21T09:51:13.339Z,2.00
2023-02-21T09:52:37.979Z,5.00
2023-02-21T09:53:45.639Z,3.50
2023-02-21T09:54:55.618Z,3.00
2023-02-21T09:56:35.773Z,4.00
2023-02-21T09:57:38.655Z,4.75
2023-02-21T09:58:47.436Z,5.00
2023-02-21T09:59:51.012Z,4.00
2023-02-21T10:00:53.990Z,5.00
2023-02-21T10:02:11.576Z,4.00
2023-02-21T10:03:35.602Z,4.00
2023-02-21T10:04:47.257Z,4.00
2023-02-21T10:06:26.063Z,4.00
2023-02-21T10:07:46.619Z,4.00
2023-02-21T10:09:02.273Z,4.00
2023-02-21T10:10:16.330Z,4.00
2023-02-21T10:11:42.828Z,3.00
2023-02-21T10:12:58.381Z,3.00
2023-02-21T10:14:24.354Z,5.00
2023-02-21T10:15:53.578Z,3.00
2023-02-21T10:17:05.385Z,4.75
2023-02-21T10:18:19.590Z,4.00
2023-02-21T10:19:49.404Z,5.00
2023-02-21T10:21:00.509Z,4.00
2023-02-21T10:22:13.230Z,3.00
2023-02-21T10:23:19.510Z,2.00
2023-02-21T10:24:26.998Z,1.00
2023-02-21T10:25:33.443Z,1.00
2023-02-21T10:26:42.113Z,1.00
2023-02-21T10:27:44.842Z,2.25
2023-02-21T10:28:47.578Z,2.00
2023-02-21T10:29:53.476Z,1.75
2023-02-21T10:31:01.097Z,2.00
2023-02-21T10:32:05.294Z,4.00
2023-02-21T10:33:09.278Z,4.25
2023-02-21T10:34:27.399Z,3.75
2023-02-21T10:35:30.133Z,1.00
2023-02-21T10:36:32.856Z,1.00
2023-02-21T10:37:43.007Z,2.00
2023-02-21T10:38:56.216Z,1.00
2023-02-21T10:40:36.795Z,2.75
2023-02-21T10:41:42.402Z,2.75
2023-02-21T10:42:52.410Z,1.75
2023-02-21T10:44:02.725Z,3.75
2023-02-21T10:45:06.656Z,1.50
2023-02-21T10:46:24.601Z,2.00
2023-02-21T10:48:10.443Z,3.00
2023-02-21T10:49:30.665Z,2.00
2023-02-21T10:50:45.133Z,2.00
2023-02-21T10:51:47.837Z,3.00
2023-02-21T10:52:52.608Z,1.75
2023-02-21T10:53:55.407Z,1.00
2023-02-21T10:55:05.567Z,1.00
2023-02-21T10:56:21.590Z,3.00
2023-02-21T10:57:24.316Z,3.00
2023-02-21T10:58:29.011Z,2.00
2023-02-21T10:59:38.359Z,2.00
2023-02-21T11:00:48.925Z,1.75
2023-02-21T11:01:52.224Z,2.25
2023-02-21T11:03:03.409Z,1.75
2023-02-21T11:04:28.648Z,1.00
2023-02-21T11:05:31.533Z,1.00
2023-02-21T11:06:47.595Z,1.00
2023-02-21T11:08:11.381Z,2.00
2023-02-21T11:09:29.019Z,2.00
2023-02-21T11:10:33.883Z,1.00
2023-02-21T11:11:45.379Z,7.50
2023-02-21T11:13:06.919Z,24.25
2023-02-21T11:14:21.583Z,50.00
2023-02-21T11:15:24.279Z,42.25
2023-02-21T11:17:43.832Z,50.75
2023-02-21T11:18:46.870Z,24.00
2023-02-21T11:20:08.607Z,31.00
2023-02-21T11:21:17.183Z,16.75
2023-02-21T11:22:26.599Z,7.25
2023-02-21T11:23:32.705Z,7.25
2023-02-21T11:24:35.392Z,19.00
2023-02-21T11:25:41.619Z,8.75
2023-02-21T11:26:54.156Z,3.75
2023-02-21T11:28:21.288Z,3.00
2023-02-21T11:29:28.190Z,3.00
2023-02-21T11:30:33.908Z,2.00
2023-02-21T11:31:36.928Z,3.00
2023-02-21T11:32:43.152Z,3.00
2023-02-21T11:33:57.396Z,2.00
2023-02-21T11:35:24.561Z,2.00
2023-02-21T11:36:33.567Z,1.00
2023-02-21T11:37:50.253Z,3.00
2023-02-21T11:39:05.980Z,2.00
2023-02-21T11:40:27.313Z,1.00
2023-02-21T11:41:37.377Z,1.00
2023-02-21T11:42:40.101Z,2.00
2023-02-21T11:43:50.062Z,3.00
2023-02-21T11:45:11.288Z,2.00
2023-02-21T11:46:38.424Z,2.00
2023-02-21T11:47:49.757Z,2.00
2023-02-21T11:48:52.399Z,3.00
2023-02-21T11:50:14.099Z,2.00
2023-02-21T11:51:45.455Z,3.00
2023-02-21T11:52:56.668Z,4.00
2023-02-21T11:53:59.617Z,1.50
2023-02-21T11:55:02.544Z,1.00
2023-02-21T11:56:26.958Z,2.00
2023-02-21T11:57:46.579Z,3.00
2023-02-21T11:58:57.982Z,2.75
2023-02-21T12:00:10.072Z,2.00
2023-02-21T12:01:29.702Z,1.00
2023-02-21T12:02:45.395Z,1.00
2023-02-21T12:04:21.653Z,1.00
2023-02-21T12:05:30.102Z,1.00
2023-02-21T12:06:50.253Z,1.00
2023-02-21T12:07:55.665Z,2.00
2023-02-21T12:09:45.922Z,1.00
2023-02-21T12:11:15.767Z,1.75
2023-02-21T12:12:30.428Z,0.25
2023-02-21T12:13:41.941Z,1.00
2023-02-21T12:14:53.335Z,0.00
2023-02-21T12:16:18.367Z,0.00
2023-02-21T12:17:33.864Z,2.00
2023-02-21T12:19:05.896Z,1.50
2023-02-21T12:20:17.540Z,0.00
2023-02-21T12:21:37.050Z,3.00
2023-02-21T12:23:10.907Z,2.00
2023-02-21T12:24:38.467Z,2.00
2023-02-21T12:25:53.355Z,1.00
2023-02-21T12:27:33.279Z,12.25
2023-02-21T12:29:03.118Z,28.00
2023-02-21T12:30:28.003Z,30.00
2023-02-21T12:31:46.973Z,33.00
2023-02-21T12:33:09.150Z,18.00
2023-02-21T12:34:23.709Z,10.00
2023-02-21T12:35:32.442Z,4.75
2023-02-21T12:36:55.551Z,1.00
2023-02-21T12:38:09.871Z,3.00
2023-02-21T12:39:13.057Z,9.00
2023-02-21T12:40:21.643Z,3.50
2023-02-21T12:41:39.277Z,3.00
2023-02-21T12:42:48.050Z,2.00
2023-02-21T12:44:17.460Z,3.00
2023-02-21T12:45:26.129Z,5.00
2023-02-21T12:46:41.363Z,3.00
2023-02-21T12:48:12.902Z,6.50
2023-02-21T12:49:36.327Z,24.00
2023-02-21T12:50:43.219Z,30.00
2023-02-21T12:51:54.052Z,17.50
2023-02-21T12:53:04.028Z,7.00
2023-02-21T12:54:25.539Z,15.00
2023-02-21T12:55:35.047Z,48.25
2023-02-21T12:56:41.549Z,42.75
2023-02-21T12:57:55.651Z,44.00
2023-02-21T12:59:21.337Z,33.50
2023-02-21T13:00:37.848Z,20.25
2023-02-21T13:01:51.785Z,16.25
2023-02-21T13:03:20.735Z,35.25
2023-02-21T13:04:44.397Z,34.50
2023-02-21T13:05:56.044Z,21.50
2023-02-21T13:07:22.684Z,8.25
2023-02-21T13:09:02.655Z,11.50
2023-02-21T13:10:25.862Z,20.50
2023-02-21T13:12:01.773Z,29.00
2023-02-21T13:13:13.484Z,32.00
2023-02-21T13:14:21.627Z,35.50
2023-02-21T13:15:27.848Z,22.50
2023-02-21T13:16:32.678Z,18.00
2023-02-21T13:17:36.311Z,27.25
2023-02-21T13:18:45.613Z,30.00
2023-02-21T13:19:54.721Z,24.00
2023-02-21T13:21:06.727Z,24.00
2023-02-21T13:23:05.326Z,20.25
2023-02-21T13:24:32.857Z,6.25
2023-02-21T13:26:03.645Z,10.00
2023-02-21T13:27:24.424Z,11.75
2023-02-21T13:28:30.287Z,9.25
2023-02-21T13:29:37.486Z,14.00
2023-02-21T13:30:47.606Z,19.25
2023-02-21T13:32:00.434Z,27.00
2023-02-21T13:33:03.558Z,27.25
2023-02-21T13:34:20.121Z,23.00
2023-02-21T13:35:48.224Z,14.00
2023-02-21T13:36:51.458Z,13.25
2023-02-21T13:37:55.977Z,9.75
2023-02-21T13:39:18.908Z,11.00
2023-02-21T13:40:34.159Z,11.00
2023-02-21T13:41:47.684Z,9.25
2023-02-21T13:43:07.427Z,13.75
2023-02-21T13:44:14.366Z,9.00
2023-02-21T13:45:23.137Z,12.00
2023-02-21T13:46:45.787Z,8.00
2023-02-21T13:47:54.356Z,6.50
2023-02-21T13:49:34.351Z,10.00
2023-02-21T13:50:39.911Z,8.50
2023-02-21T13:51:54.090Z,6.50
2023-02-21T13:53:21.515Z,3.50
2023-02-21T13:54:26.258Z,15.50
2023-02-21T13:55:29.961Z,14.50
2023-02-21T13:56:45.551Z,15.25
2023-02-21T13:58:08.560Z,30.00
2023-02-21T13:59:40.243Z,24.50
2023-02-21T14:00:42.834Z,13.75
2023-02-21T14:01:45.584Z,7.00
2023-02-21T14:03:13.657Z,3.75
2023-02-21T14:04:55.551Z,3.00
2023-02-21T14:05:58.143Z,8.50
2023-02-21T14:07:00.904Z,6.00
2023-02-21T14:08:09.986Z,8.00
2023-02-21T14:09:21.765Z,7.00
2023-02-21T14:10:49.068Z,7.00
2023-02-21T14:11:53.941Z,6.00
2023-02-21T14:13:01.149Z,6.00
2023-02-21T14:14:07.394Z,13.00
2023-02-21T14:15:11.416Z,16.50
2023-02-21T14:16:14.755Z,17.00
2023-02-21T14:17:28.135Z,15.00
2023-02-21T14:18:39.723Z,16.00
2023-02-21T14:19:42.333Z,20.75
2023-02-21T14:20:48.423Z,24.00
2023-02-21T14:21:57.771Z,23.50
2023-02-21T14:23:00.892Z,19.00
2023-02-21T14:24:18.680Z,18.75
2023-02-21T14:25:27.130Z,18.00
2023-02-21T14:26:52.043Z,12.75
2023-02-21T14:27:54.706Z,6.25
2023-02-21T14:29:02.382Z,4.00
2023-02-21T14:30:14.049Z,3.25
2023-02-21T14:31:17.107Z,4.25
2023-02-21T14:32:33.940Z,3.75
2023-02-21T14:33:37.421Z,5.00
2023-02-21T14:34:49.128Z,5.25
2023-02-21T14:36:19.796Z,6.50
2023-02-21T14:37:42.263Z,4.00
2023-02-21T14:38:45.988Z,6.00
2023-02-21T14:40:20.191Z,8.00
2023-02-21T14:41:47.994Z,6.00
2023-02-21T14:43:03.664Z,2.00
2023-02-21T14:44:45.104Z,2.00
2023-02-21T14:46:08.789Z,4.25
2023-02-21T14:47:36.981Z,5.00
2023-02-21T14:48:52.847Z,3.75
2023-02-21T14:50:18.528Z,1.00
2023-02-21T14:52:03.838Z,0.00
2023-02-21T14:53:29.729Z,0.00
2023-02-21T14:54:50.348Z,0.00
2023-02-21T14:56:10.283Z,0.00
2023-02-21T14:57:15.708Z,0.00
2023-02-21T14:58:39.795Z,1.00
2023-02-21T15:00:19.964Z,2.00
2023-02-21T15:01:40.551Z,1.00
2023-02-21T15:03:07.272Z,0.00
2023-02-21T15:04:34.536Z,2.00
2023-02-21T15:05:55.473Z,1.00
2023-02-21T15:07:19.895Z,2.50
2023-02-21T15:08:25.726Z,0.00
2023-02-21T15:09:28.706Z,0.00
2023-02-21T15:10:33.870Z,0.00
2023-02-21T15:11:39.595Z,2.00
2023-02-21T15:12:55.217Z,2.25
2023-02-21T15:14:25.011Z,2.00
2023-02-21T15:15:31.403Z,1.00
2023-02-21T15:16:34.183Z,2.00
2023-02-21T15:17:37.042Z,3.00
2023-02-21T15:18:42.353Z,1.00
2023-02-21T15:19:45.682Z,0.00
2023-02-21T15:20:48.349Z,1.00
2023-02-21T15:21:51.029Z,4.00
2023-02-21T15:23:20.328Z,6.00
2023-02-21T15:24:23.742Z,7.00
2023-02-21T15:25:26.764Z,9.00
2023-02-21T15:26:32.312Z,8.25
2023-02-21T15:27:56.828Z,7.00
2023-02-21T15:29:17.380Z,12.25
2023-02-21T15:30:23.412Z,11.25
2023-02-21T15:31:29.537Z,12.00
2023-02-21T15:32:32.494Z,15.50